Flight Track Log - Related Links

Times and Time Zones

All times are in EDT time to prevent confusion due to time zone crossing. See the PDT4147 flight status page for this flight to view local times or setup timezone preferences in your user account.

Time Position Orientation Groundspeed Altitude Reporting Facility
EDT Latitude Longitude Course Direction KTS MPH feet Rate Location/Type
Mon 04:35:00 PM 36.9741 -80.0333 180° South  Level FlightAware Approximate
Mon 04:36:00 PM 36.9040 -80.0285 176° South  Level FlightAware Approximate
Mon 04:37:00 PM 36.8404 -80.0236 176° South  Level FlightAware Approximate
Mon 04:38:00 PM 36.7767 -80.0187 176° South  Level FlightAware Approximate
Mon 04:39:00 PM 36.7131 -80.0164 177° South  Level FlightAware Approximate
Mon 04:40:00 PM 36.6494 -80.0125 177° South  Level FlightAware Approximate
Mon 04:41:00 PM 36.5857 -80.0085 177° South  Level FlightAware Approximate
Mon 04:42:00 PM 36.5220 -80.0045 177° South  Level FlightAware Approximate
Mon 04:43:00 PM 36.4583 -80.0005 177° South  Level FlightAware Approximate
Mon 04:44:00 PM 36.3949 -79.9931 174° South  Level FlightAware Approximate
Mon 04:45:00 PM 36.3314 -79.9852 174° South  Level FlightAware Approximate
Mon 04:46:00 PM 36.2678 -79.9805 177° South  Level FlightAware Approximate
Mon 04:47:00 PM 36.2041 -79.9767 177° South  Level FlightAware Approximate
Mon 04:48:00 PM 36.1404 -79.9730 177° South  Level FlightAware Approximate
Mon 04:49:00 PM 36.0768 -79.9692 177° South  Level FlightAware Approximate
Mon 04:50:00 PM 36.0202 -79.9858 230° Southwest  Level FlightAware Approximate
Mon 04:51:00 PM 35.9790 -80.0459 230° Southwest  Level FlightAware Approximate
Mon 04:52:00 PM 35.9377 -80.1060 230° Southwest  Level FlightAware Approximate
Mon 04:53:00 PM 35.8965 -80.1659 230° Southwest  Level FlightAware Approximate
Mon 04:53:19 PM 35.9542 -80.4014 228° Southwest 238 274 8,900  Level Atlanta Center
Mon 04:53:49 PM 35.9194 -80.4183 202° Southwest 241 277 8,900  Level Atlanta Center
Mon 04:54:00 PM 35.8522 -80.2301 230° Southwest  Level FlightAware Approximate
Mon 04:54:51 PM 35.8575 -80.4467 200° South 242 278 8,900  Level Atlanta Center
Mon 04:55:00 PM 35.8045 -80.2903 225° Southwest  Level FlightAware Approximate
Mon 04:55:52 PM 35.7958 -80.4725 199° South 237 273 8,900  Level Atlanta Center
Mon 04:56:00 PM 35.7574 -80.3513 227° Southwest  Level FlightAware Approximate
Mon 04:56:53 PM 35.7319 -80.5008 200° South 238 274 8,900  Level Atlanta Center
Mon 04:57:00 PM 35.7111 -80.4130 227° Southwest  Level FlightAware Approximate
Mon 04:57:54 PM 35.6750 -80.5519 216° Southwest 240 276 8,900  Level Atlanta Center
Mon 04:58:00 PM 35.6627 -80.4721 228° Southwest  Level FlightAware Approximate
Mon 04:58:55 PM 35.6200 -80.5975 214° Southwest 242 278 8,900  Level Atlanta Center
Mon 04:59:56 PM 35.5628 -80.6458 214° Southwest 246 283 8,900  Level Atlanta Center
Mon 05:00:57 PM 35.5078 -80.6942 216° Southwest 245 282 8,900  Level Atlanta Center
Mon 05:01:58 PM 35.4467 -80.7425 213° Southwest 242 278 8,900  Level Atlanta Center
Mon 05:03:00 PM 35.3894 -80.7881 213° Southwest 243 280 8,900  Level Atlanta Center
Mon 05:04:01 PM 35.3342 -80.8311 212° Southwest 244 281 8,900  Level Atlanta Center
Mon 05:05:02 PM 35.2631 -80.8211 173° South 257 296 8,900 -197 Level Atlanta Center
Mon 05:06:03 PM 35.1894 -80.8036 169° South 262 302 8,500 -984 Descending Atlanta Center
Mon 05:07:04 PM 35.1139 -80.7886 171° South 260 299 6,900 -1,525 Descending Atlanta Center
Mon 05:08:05 PM 35.0511 -80.7733 169° South 227 261 5,400 -1,426 Descending Atlanta Center
Mon 05:09:06 PM 34.9969 -80.7858 191° South 209 241 4,000 -683 Descending Atlanta Center
Mon 05:10:08 PM 35.0028 -80.8464 277° West 187 215 4,000 -49 Level Atlanta Center
Mon 05:11:09 PM 35.0478 -80.8878 323° Northwest 204 235 3,900 -590 Descending Atlanta Center
Mon 05:12:10 PM 35.0944 -80.9242 327° Northwest 188 216 2,800 -1,082 Descending Atlanta Center

Login

Don't have an account? Register now (free) for customized features, flight alerts, and more!